createdAt,value
2023-01-22T00:00:13.397Z,3.33
2023-01-22T00:02:44.001Z,3.30
2023-01-22T00:05:15.087Z,3.36
2023-01-22T00:07:45.640Z,3.37
2023-01-22T00:10:14.156Z,3.38
2023-01-22T00:12:42.761Z,3.41
2023-01-22T00:15:11.566Z,3.46
2023-01-22T00:17:39.990Z,3.49
2023-01-22T00:20:09.378Z,3.49
2023-01-22T00:22:37.875Z,3.52
2023-01-22T00:25:11.545Z,3.54
2023-01-22T00:27:41.914Z,3.55
2023-01-22T00:30:11.659Z,3.51
2023-01-22T00:32:46.936Z,3.50
2023-01-22T00:35:26.774Z,3.57
2023-01-22T00:37:55.301Z,3.56
2023-01-22T00:40:29.673Z,3.63
2023-01-22T00:42:58.012Z,3.68
2023-01-22T00:45:26.460Z,3.68
2023-01-22T00:47:57.619Z,3.71
2023-01-22T00:50:26.042Z,3.79
2023-01-22T00:53:05.985Z,3.80
2023-01-22T00:55:35.792Z,3.75
2023-01-22T00:58:04.286Z,3.75
2023-01-22T01:00:33.401Z,3.77
2023-01-22T01:03:32.601Z,3.77
2023-01-22T01:06:10.027Z,3.76
2023-01-22T01:08:57.361Z,3.76
2023-01-22T01:11:27.795Z,3.75
2023-01-22T01:13:57.435Z,3.73
2023-01-22T01:16:36.649Z,3.76
2023-01-22T01:19:08.283Z,3.81
2023-01-22T01:21:37.009Z,3.83
2023-01-22T01:24:06.421Z,3.86
2023-01-22T01:26:36.227Z,3.87
2023-01-22T01:29:05.774Z,3.86
2023-01-22T01:31:34.261Z,3.93
2023-01-22T01:34:02.679Z,3.91
2023-01-22T01:36:47.645Z,3.94
2023-01-22T01:39:16.995Z,3.93
2023-01-22T01:41:46.803Z,3.95
2023-01-22T01:44:17.885Z,3.94
2023-01-22T01:46:51.025Z,3.94
2023-01-22T01:49:29.192Z,3.95
2023-01-22T01:52:01.449Z,3.89
2023-01-22T01:54:31.552Z,3.86
2023-01-22T01:57:09.503Z,3.87
2023-01-22T01:59:39.964Z,3.88
2023-01-22T02:02:08.836Z,3.91
2023-01-22T02:04:37.343Z,3.90
2023-01-22T02:07:06.989Z,3.88
2023-01-22T02:09:36.103Z,3.85
2023-01-22T02:12:07.143Z,3.88
2023-01-22T02:14:39.984Z,3.89
2023-01-22T02:17:11.810Z,3.90
2023-01-22T02:19:40.869Z,3.91
2023-01-22T02:22:18.563Z,3.87
2023-01-22T02:24:50.239Z,3.77
2023-01-22T02:27:19.735Z,3.76
2023-01-22T02:29:49.863Z,3.75
2023-01-22T02:32:18.420Z,3.79
2023-01-22T02:34:47.206Z,3.83
2023-01-22T02:37:17.594Z,3.85
2023-01-22T02:39:46.132Z,3.87
2023-01-22T02:42:15.181Z,3.89
2023-01-22T02:44:46.746Z,3.90
2023-01-22T02:47:15.279Z,3.85
2023-01-22T02:49:43.880Z,3.83
2023-01-22T02:52:12.755Z,3.71
2023-01-22T02:54:42.792Z,3.54
2023-01-22T02:57:11.355Z,3.44
2023-01-22T02:59:42.775Z,3.36
2023-01-22T03:02:12.776Z,3.37
2023-01-22T03:04:44.393Z,3.39
2023-01-22T03:07:15.806Z,3.40
2023-01-22T03:09:46.118Z,3.39
2023-01-22T03:12:15.309Z,3.35
2023-01-22T03:15:01.628Z,3.30
2023-01-22T03:17:48.095Z,3.25
2023-01-22T03:20:34.758Z,3.25
2023-01-22T03:23:04.455Z,3.24
2023-01-22T03:25:35.109Z,3.20
2023-01-22T03:28:19.070Z,3.22
2023-01-22T03:30:56.473Z,3.19
2023-01-22T03:33:25.958Z,3.16
2023-01-22T03:35:54.823Z,3.09
2023-01-22T03:38:24.388Z,3.08
2023-01-22T03:41:01.808Z,3.10
2023-01-22T03:43:30.545Z,3.05
2023-01-22T03:46:05.184Z,3.08
2023-01-22T03:48:34.789Z,3.08
2023-01-22T03:51:08.325Z,3.10
2023-01-22T03:53:38.716Z,3.10
2023-01-22T03:56:11.866Z,3.09
2023-01-22T03:58:44.276Z,3.06
2023-01-22T04:01:15.044Z,3.07
2023-01-22T04:03:44.567Z,3.10
2023-01-22T04:06:18.318Z,3.11
2023-01-22T04:08:51.045Z,3.12
2023-01-22T04:11:23.693Z,3.09
2023-01-22T04:13:52.853Z,3.09
2023-01-22T04:16:22.510Z,3.08
2023-01-22T04:19:12.050Z,3.03
2023-01-22T04:22:05.532Z,2.99
2023-01-22T04:24:35.798Z,2.97
2023-01-22T04:27:08.107Z,2.95
2023-01-22T04:29:36.836Z,2.93
2023-01-22T04:32:08.428Z,2.92
2023-01-22T04:34:52.356Z,2.89
2023-01-22T04:37:24.457Z,2.87
2023-01-22T04:39:55.154Z,2.85
2023-01-22T04:42:27.212Z,2.88
2023-01-22T04:44:56.187Z,2.90
2023-01-22T04:47:24.840Z,2.91
2023-01-22T04:49:53.549Z,2.89
2023-01-22T04:52:22.215Z,2.90
2023-01-22T04:54:54.040Z,2.93
2023-01-22T04:57:25.224Z,2.96
2023-01-22T04:59:53.709Z,2.98
2023-01-22T05:02:23.504Z,3.00
2023-01-22T05:04:53.020Z,3.01
2023-01-22T05:07:21.648Z,3.01
2023-01-22T05:09:56.045Z,3.07
2023-01-22T05:12:30.156Z,3.09
2023-01-22T05:14:59.535Z,3.09
2023-01-22T05:17:28.028Z,3.09
2023-01-22T05:19:57.102Z,3.10
2023-01-22T05:22:25.654Z,3.11
2023-01-22T05:24:55.589Z,3.10
2023-01-22T05:27:24.507Z,3.08
2023-01-22T05:30:00.212Z,3.10
2023-01-22T05:32:50.874Z,3.08
2023-01-22T05:35:22.932Z,3.05
2023-01-22T05:37:52.248Z,3.02
2023-01-22T05:40:25.221Z,3.06
2023-01-22T05:42:54.647Z,3.05
2023-01-22T05:45:25.232Z,3.06
2023-01-22T05:48:14.049Z,3.05
2023-01-22T05:51:08.885Z,3.08
2023-01-22T05:53:37.393Z,3.11
2023-01-22T05:56:08.370Z,3.15
2023-01-22T05:58:40.077Z,3.15
2023-01-22T06:01:12.879Z,3.19
2023-01-22T06:03:45.692Z,3.19
2023-01-22T06:06:22.253Z,3.22
2023-01-22T06:08:52.893Z,3.23
2023-01-22T06:11:31.038Z,3.24
2023-01-22T06:13:59.819Z,3.27
2023-01-22T06:16:34.827Z,3.30
2023-01-22T06:19:22.060Z,3.30
2023-01-22T06:21:54.230Z,3.27
2023-01-22T06:24:29.694Z,3.26
2023-01-22T06:26:59.981Z,3.28
2023-01-22T06:29:39.933Z,3.26
2023-01-22T06:32:10.150Z,3.25
2023-01-22T06:34:39.120Z,3.25
2023-01-22T06:37:07.944Z,3.27
2023-01-22T06:39:39.748Z,3.32
2023-01-22T06:42:23.600Z,3.32
2023-01-22T06:44:53.809Z,3.32
2023-01-22T06:47:26.858Z,3.31
2023-01-22T06:49:55.960Z,3.37
2023-01-22T06:52:25.256Z,3.40
2023-01-22T06:54:53.681Z,3.45
2023-01-22T06:57:22.947Z,3.50
2023-01-22T06:59:52.252Z,3.58
2023-01-22T07:02:22.024Z,3.58
2023-01-22T07:04:52.254Z,3.56
2023-01-22T07:07:20.780Z,3.56
2023-01-22T07:09:49.215Z,3.53
2023-01-22T07:12:19.180Z,3.49
2023-01-22T07:14:47.544Z,3.44
2023-01-22T07:17:15.997Z,3.40
2023-01-22T07:19:44.438Z,3.41
2023-01-22T07:22:14.336Z,3.40
2023-01-22T07:24:43.335Z,3.36
2023-01-22T07:27:12.082Z,3.33
2023-01-22T07:29:40.584Z,3.32
2023-01-22T07:32:08.989Z,3.36
2023-01-22T07:34:37.959Z,3.34
2023-01-22T07:37:06.359Z,3.36
2023-01-22T07:39:36.938Z,3.35
2023-01-22T07:42:05.407Z,3.33
2023-01-22T07:44:33.827Z,3.32
2023-01-22T07:47:02.531Z,3.32
2023-01-22T07:49:30.927Z,3.33
2023-01-22T07:51:59.459Z,3.40
2023-01-22T07:54:28.131Z,3.44
2023-01-22T07:56:58.333Z,3.47
2023-01-22T07:59:26.846Z,3.48
2023-01-22T08:01:56.243Z,3.45
2023-01-22T08:04:25.555Z,3.43
2023-01-22T08:06:54.318Z,3.44
2023-01-22T08:09:25.874Z,3.45
2023-01-22T08:11:55.269Z,3.46
2023-01-22T08:14:25.856Z,3.52
2023-01-22T08:16:54.302Z,3.54
2023-01-22T08:19:22.788Z,3.56
2023-01-22T08:21:51.638Z,3.56
2023-01-22T08:24:20.043Z,3.56
2023-01-22T08:26:48.700Z,3.54
2023-01-22T08:29:17.900Z,3.55
2023-01-22T08:31:48.408Z,3.53
2023-01-22T08:34:17.204Z,3.55
2023-01-22T08:36:45.629Z,3.62
2023-01-22T08:39:14.226Z,3.67
2023-01-22T08:41:43.596Z,3.66
2023-01-22T08:44:13.884Z,3.62
2023-01-22T08:46:42.406Z,3.56
2023-01-22T08:49:13.242Z,3.52
2023-01-22T08:51:41.814Z,3.52
2023-01-22T08:54:10.287Z,3.46
2023-01-22T08:56:38.746Z,3.48
2023-01-22T08:59:07.841Z,3.51
2023-01-22T09:01:36.522Z,3.51
2023-01-22T09:04:09.583Z,3.57
2023-01-22T09:06:40.344Z,3.57
2023-01-22T09:09:09.176Z,3.62
2023-01-22T09:11:37.647Z,3.66
2023-01-22T09:14:08.511Z,3.69
2023-01-22T09:16:37.730Z,3.68
2023-01-22T09:19:07.153Z,3.76
2023-01-22T09:21:37.568Z,3.81
2023-01-22T09:24:08.909Z,3.85
2023-01-22T09:26:38.747Z,3.91
2023-01-22T09:29:12.549Z,3.87
2023-01-22T09:31:41.463Z,3.84
2023-01-22T09:34:09.984Z,3.85
2023-01-22T09:36:38.436Z,3.87
2023-01-22T09:39:08.297Z,3.81
2023-01-22T09:41:41.612Z,3.89
2023-01-22T09:44:16.854Z,3.90
2023-01-22T09:46:48.285Z,3.84
2023-01-22T09:49:18.631Z,3.89
2023-01-22T09:51:58.080Z,3.90
2023-01-22T09:54:30.252Z,4.03
2023-01-22T09:57:04.723Z,4.09
2023-01-22T09:59:39.636Z,4.11
2023-01-22T10:02:24.007Z,4.08
2023-01-22T10:04:57.096Z,4.11
2023-01-22T10:07:30.324Z,4.13
2023-01-22T10:10:06.575Z,4.13
2023-01-22T10:12:41.114Z,4.13
2023-01-22T10:15:19.440Z,4.18
2023-01-22T10:17:49.279Z,4.21
2023-01-22T10:20:21.350Z,4.26
2023-01-22T10:22:50.167Z,4.27
2023-01-22T10:25:22.338Z,4.29
2023-01-22T10:28:00.665Z,4.32
2023-01-22T10:30:33.262Z,4.42
2023-01-22T10:33:04.727Z,4.50
2023-01-22T10:35:44.424Z,4.63
2023-01-22T10:38:24.362Z,4.66
2023-01-22T10:41:05.567Z,4.79
2023-01-22T10:43:35.492Z,4.76
2023-01-22T10:46:17.160Z,4.83
2023-01-22T10:48:47.139Z,4.95
2023-01-22T10:51:22.444Z,5.02
2023-01-22T10:54:01.447Z,5.05
2023-01-22T10:56:35.650Z,5.04
2023-01-22T10:59:20.439Z,5.08
2023-01-22T11:02:02.358Z,5.10
2023-01-22T11:04:33.334Z,4.99
2023-01-22T11:07:08.745Z,4.95
2023-01-22T11:09:50.445Z,5.02
2023-01-22T11:12:23.981Z,4.94
2023-01-22T11:15:00.424Z,4.94
2023-01-22T11:17:37.150Z,4.93
2023-01-22T11:20:15.474Z,4.93
2023-01-22T11:22:48.029Z,4.99
2023-01-22T11:25:19.498Z,5.09
2023-01-22T11:28:20.822Z,5.18
2023-01-22T11:31:09.296Z,5.30
2023-01-22T11:34:09.339Z,5.41
2023-01-22T11:36:48.041Z,5.43
2023-01-22T11:39:30.163Z,5.49
2023-01-22T11:42:07.806Z,5.58
2023-01-22T11:44:55.966Z,5.65
2023-01-22T11:47:56.305Z,5.69
2023-01-22T11:50:34.911Z,5.58
2023-01-22T11:53:35.693Z,5.53
2023-01-22T11:56:28.987Z,5.61
2023-01-22T11:59:04.340Z,5.58
2023-01-22T12:01:48.623Z,5.58
2023-01-22T12:04:34.685Z,5.64
2023-01-22T12:07:34.588Z,5.78
2023-01-22T12:10:27.183Z,5.89
2023-01-22T12:13:04.180Z,5.90
2023-01-22T12:15:45.669Z,5.94
2023-01-22T12:18:44.944Z,5.86
2023-01-22T12:21:20.906Z,5.77
2023-01-22T12:23:55.516Z,5.68
2023-01-22T12:26:29.368Z,5.61
2023-01-22T12:29:06.658Z,5.82
2023-01-22T12:31:39.973Z,5.89
2023-01-22T12:34:19.657Z,5.83
2023-01-22T12:36:50.420Z,5.81
2023-01-22T12:39:27.938Z,5.87
2023-01-22T12:42:07.602Z,5.93
2023-01-22T12:44:45.802Z,5.97
2023-01-22T12:47:20.958Z,5.85
2023-01-22T12:49:52.692Z,5.92
2023-01-22T12:52:43.757Z,5.97
2023-01-22T12:55:31.633Z,5.99
2023-01-22T12:58:00.719Z,6.01
2023-01-22T13:00:34.818Z,5.98
2023-01-22T13:03:05.154Z,5.99
2023-01-22T13:05:41.716Z,6.14
2023-01-22T13:08:26.299Z,6.20
2023-01-22T13:10:56.890Z,6.20
2023-01-22T13:13:30.286Z,6.14
2023-01-22T13:16:03.774Z,6.03
2023-01-22T13:18:36.839Z,6.10
2023-01-22T13:21:09.685Z,6.17
2023-01-22T13:23:42.729Z,6.22
2023-01-22T13:26:18.895Z,6.16
2023-01-22T13:28:53.627Z,6.20
2023-01-22T13:31:22.979Z,6.22
2023-01-22T13:33:59.353Z,6.24
2023-01-22T13:36:29.677Z,6.29
2023-01-22T13:38:59.620Z,6.26
2023-01-22T13:41:32.470Z,6.33
2023-01-22T13:44:01.125Z,6.31
2023-01-22T13:46:31.763Z,6.38
2023-01-22T13:49:08.861Z,6.29
2023-01-22T13:51:39.068Z,6.24
2023-01-22T13:54:08.410Z,6.28
2023-01-22T13:56:36.836Z,6.31
2023-01-22T13:59:08.314Z,6.46
2023-01-22T14:01:38.456Z,6.51
2023-01-22T14:04:09.369Z,6.57
2023-01-22T14:06:47.398Z,6.63
2023-01-22T14:09:27.031Z,6.64
2023-01-22T14:11:55.405Z,6.57
2023-01-22T14:14:23.673Z,6.66
2023-01-22T14:16:51.947Z,6.74
2023-01-22T14:19:20.214Z,6.78
2023-01-22T14:21:49.872Z,6.81
2023-01-22T14:24:18.048Z,6.95
2023-01-22T14:26:46.733Z,6.88
2023-01-22T14:29:15.760Z,6.98
2023-01-22T14:31:44.580Z,7.04
2023-01-22T14:34:12.872Z,7.03
2023-01-22T14:36:41.501Z,6.94
2023-01-22T14:39:11.307Z,6.84
2023-01-22T14:41:39.612Z,6.88
2023-01-22T14:44:07.849Z,6.90
2023-01-22T14:46:38.274Z,6.90
2023-01-22T14:49:06.796Z,6.97
2023-01-22T14:51:35.676Z,7.07
2023-01-22T14:54:04.064Z,7.02
2023-01-22T14:56:33.826Z,7.03
2023-01-22T14:59:02.737Z,7.13
2023-01-22T15:01:31.070Z,7.15
2023-01-22T15:03:59.392Z,7.16
2023-01-22T15:06:27.803Z,7.11
2023-01-22T15:08:56.183Z,7.22
2023-01-22T15:11:24.523Z,7.17
2023-01-22T15:13:55.810Z,7.16
2023-01-22T15:16:24.189Z,7.13
2023-01-22T15:18:55.729Z,7.04
2023-01-22T15:21:24.242Z,6.91
2023-01-22T15:23:53.300Z,7.01
2023-01-22T15:26:25.805Z,7.10
2023-01-22T15:28:55.552Z,6.99
2023-01-22T15:31:24.008Z,6.87
2023-01-22T15:33:52.409Z,7.01
2023-01-22T15:36:20.859Z,7.00
2023-01-22T15:38:49.168Z,6.97
2023-01-22T15:41:22.543Z,6.93
2023-01-22T15:43:52.027Z,6.93
2023-01-22T15:46:23.178Z,6.94
2023-01-22T15:48:52.219Z,6.95
2023-01-22T15:51:21.156Z,6.89
2023-01-22T15:53:50.947Z,6.84
2023-01-22T15:56:20.120Z,6.83
2023-01-22T15:58:50.440Z,6.85
2023-01-22T16:01:20.102Z,6.78
2023-01-22T16:03:50.110Z,6.78
2023-01-22T16:06:22.597Z,6.73
2023-01-22T16:08:52.148Z,6.67
2023-01-22T16:11:21.369Z,6.66
2023-01-22T16:13:49.966Z,6.58
2023-01-22T16:16:20.320Z,6.62
2023-01-22T16:18:51.610Z,6.66
2023-01-22T16:21:21.735Z,6.65
2023-01-22T16:23:53.698Z,6.58
2023-01-22T16:26:24.465Z,6.51
2023-01-22T16:28:54.539Z,6.53
2023-01-22T16:31:24.724Z,6.46
2023-01-22T16:33:56.281Z,6.35
2023-01-22T16:36:26.610Z,6.37
2023-01-22T16:38:54.941Z,6.40
2023-01-22T16:41:27.969Z,6.30
2023-01-22T16:43:58.664Z,6.31
2023-01-22T16:46:29.340Z,6.28
2023-01-22T16:49:03.696Z,6.19
2023-01-22T16:51:36.481Z,6.22
2023-01-22T16:54:05.667Z,6.09
2023-01-22T16:56:35.250Z,6.04
2023-01-22T16:59:03.654Z,6.07
2023-01-22T17:01:32.342Z,5.97
2023-01-22T17:04:02.136Z,5.92
2023-01-22T17:06:34.252Z,5.87
2023-01-22T17:09:02.598Z,5.87
2023-01-22T17:11:31.068Z,5.87
2023-01-22T17:14:00.641Z,5.83
2023-01-22T17:16:29.131Z,5.77
2023-01-22T17:18:59.154Z,5.71
2023-01-22T17:21:29.358Z,5.66
2023-01-22T17:23:57.777Z,5.60
2023-01-22T17:26:26.189Z,5.53
2023-01-22T17:28:54.810Z,5.45
2023-01-22T17:31:24.178Z,5.44
2023-01-22T17:33:55.610Z,5.40
2023-01-22T17:36:25.360Z,5.42
2023-01-22T17:38:56.827Z,5.38
2023-01-22T17:41:27.130Z,5.35
2023-01-22T17:43:57.881Z,5.30
2023-01-22T17:46:29.157Z,5.27
2023-01-22T17:48:57.694Z,5.17
2023-01-22T17:51:28.037Z,5.09
2023-01-22T17:54:01.630Z,5.01
2023-01-22T17:56:32.299Z,4.95
2023-01-22T17:59:02.097Z,4.91
2023-01-22T18:01:32.594Z,4.85
2023-01-22T18:04:03.048Z,4.77
2023-01-22T18:06:31.951Z,4.69
2023-01-22T18:09:01.819Z,4.63
2023-01-22T18:11:33.187Z,4.54
2023-01-22T18:14:03.105Z,4.49
2023-01-22T18:16:36.393Z,4.44
2023-01-22T18:19:07.322Z,4.39
2023-01-22T18:21:37.346Z,4.31
2023-01-22T18:24:09.049Z,4.25
2023-01-22T18:26:38.085Z,4.18
2023-01-22T18:29:06.777Z,4.13
2023-01-22T18:31:35.314Z,4.09
2023-01-22T18:34:05.895Z,4.03
2023-01-22T18:36:37.412Z,4.01
2023-01-22T18:39:09.997Z,3.98
2023-01-22T18:41:39.488Z,3.91
2023-01-22T18:44:08.844Z,3.84
2023-01-22T18:46:39.448Z,3.81
2023-01-22T18:49:14.957Z,3.80
2023-01-22T18:51:45.265Z,3.77
2023-01-22T18:54:15.333Z,3.76
2023-01-22T18:56:43.727Z,3.77
2023-01-22T18:59:13.110Z,3.74
2023-01-22T19:01:43.662Z,3.74
2023-01-22T19:04:18.070Z,3.72
2023-01-22T19:06:48.708Z,3.68
2023-01-22T19:09:18.881Z,3.65
2023-01-22T19:11:48.664Z,3.62
2023-01-22T19:14:19.638Z,3.57
2023-01-22T19:16:50.670Z,3.55
2023-01-22T19:19:19.737Z,3.52
2023-01-22T19:21:53.702Z,3.49
2023-01-22T19:24:26.836Z,3.45
2023-01-22T19:26:56.069Z,3.43
2023-01-22T19:29:25.515Z,3.38
2023-01-22T19:31:55.946Z,3.38
2023-01-22T19:34:25.613Z,3.38
2023-01-22T19:36:55.103Z,3.34
2023-01-22T19:39:26.548Z,3.33
2023-01-22T19:41:55.394Z,3.34
2023-01-22T19:44:24.105Z,3.33
2023-01-22T19:46:52.475Z,3.34
2023-01-22T19:49:20.906Z,3.30
2023-01-22T19:51:49.454Z,3.32
2023-01-22T19:54:18.696Z,3.34
2023-01-22T19:56:48.458Z,3.34
2023-01-22T19:59:18.403Z,3.33
2023-01-22T20:01:48.664Z,3.32
2023-01-22T20:04:20.769Z,3.30
2023-01-22T20:06:51.048Z,3.30
2023-01-22T20:09:21.836Z,3.26
2023-01-22T20:11:53.923Z,3.27
2023-01-22T20:14:22.836Z,3.24
2023-01-22T20:16:51.437Z,3.25
2023-01-22T20:19:19.946Z,3.22
2023-01-22T20:21:48.481Z,3.19
2023-01-22T20:24:16.867Z,3.17
2023-01-22T20:26:45.340Z,3.14
2023-01-22T20:29:15.137Z,3.12
2023-01-22T20:31:44.515Z,3.11
2023-01-22T20:34:12.913Z,3.09
2023-01-22T20:36:41.266Z,3.10
2023-01-22T20:39:09.615Z,3.11
2023-01-22T20:41:37.877Z,3.08
2023-01-22T20:44:06.683Z,3.08
2023-01-22T20:46:37.621Z,3.09
2023-01-22T20:49:05.893Z,3.07
2023-01-22T20:51:34.150Z,3.13
2023-01-22T20:54:02.726Z,3.17
2023-01-22T20:56:32.877Z,3.20
2023-01-22T20:59:03.448Z,3.23
2023-01-22T21:01:32.305Z,3.20
2023-01-22T21:04:02.680Z,3.22
2023-01-22T21:06:33.893Z,3.21
2023-01-22T21:09:02.896Z,3.19
2023-01-22T21:11:33.109Z,3.18
2023-01-22T21:14:05.248Z,3.13
2023-01-22T21:16:35.820Z,3.13
2023-01-22T21:19:07.400Z,3.20
2023-01-22T21:21:36.819Z,3.21
2023-01-22T21:24:05.656Z,3.21
2023-01-22T21:26:34.628Z,3.23
2023-01-22T21:29:05.178Z,3.22
2023-01-22T21:31:33.897Z,3.24
2023-01-22T21:34:04.099Z,3.24
2023-01-22T21:36:40.816Z,3.21
2023-01-22T21:39:14.292Z,3.22
2023-01-22T21:41:43.219Z,3.22
2023-01-22T21:44:29.876Z,3.27
2023-01-22T21:46:58.285Z,3.27
2023-01-22T21:49:26.663Z,3.28
2023-01-22T21:52:05.640Z,3.30
2023-01-22T21:54:37.431Z,3.37
2023-01-22T21:57:07.402Z,3.38
2023-01-22T21:59:36.954Z,3.39
2023-01-22T22:02:06.168Z,3.40
2023-01-22T22:04:34.565Z,3.42
2023-01-22T22:07:04.340Z,3.47
2023-01-22T22:09:33.105Z,3.44
2023-01-22T22:12:03.132Z,3.43
2023-01-22T22:14:31.848Z,3.41
2023-01-22T22:17:00.293Z,3.40
2023-01-22T22:19:29.725Z,3.38
2023-01-22T22:21:58.001Z,3.31
2023-01-22T22:24:27.699Z,3.28
2023-01-22T22:26:56.047Z,3.26
2023-01-22T22:29:24.361Z,3.29
2023-01-22T22:31:52.651Z,3.21
2023-01-22T22:34:20.947Z,3.23
2023-01-22T22:36:49.521Z,3.22
2023-01-22T22:39:17.959Z,3.22
2023-01-22T22:41:47.818Z,3.20
2023-01-22T22:44:17.649Z,3.20
2023-01-22T22:46:46.197Z,3.19
2023-01-22T22:49:15.195Z,3.11
2023-01-22T22:51:44.832Z,3.12
2023-01-22T22:54:17.714Z,3.11
2023-01-22T22:56:51.329Z,3.09
2023-01-22T22:59:21.093Z,3.11
2023-01-22T23:01:50.043Z,3.08
2023-01-22T23:04:18.631Z,3.07
2023-01-22T23:06:47.801Z,3.08
2023-01-22T23:09:19.657Z,3.07
2023-01-22T23:11:52.163Z,3.08
2023-01-22T23:14:20.826Z,3.07
2023-01-22T23:16:50.147Z,3.03
2023-01-22T23:19:20.913Z,3.05
2023-01-22T23:21:52.748Z,3.02
2023-01-22T23:24:21.466Z,3.02
2023-01-22T23:26:51.433Z,2.99
2023-01-22T23:29:22.001Z,2.99
2023-01-22T23:31:51.242Z,2.97
2023-01-22T23:34:21.264Z,2.94
2023-01-22T23:36:50.555Z,2.93
2023-01-22T23:39:21.020Z,2.94
2023-01-22T23:41:51.639Z,2.92
2023-01-22T23:44:20.044Z,2.92
2023-01-22T23:46:48.529Z,2.92
2023-01-22T23:49:16.886Z,2.91
2023-01-22T23:51:45.896Z,2.91
2023-01-22T23:54:14.309Z,2.89
2023-01-22T23:56:42.734Z,2.89
2023-01-22T23:59:12.952Z,2.88
